Time;durP1;ratioP1;P1;durP2;ratioP2;P2;SDS_P1;SDS_P2;PMS_P1;PMS_P2;Temp;Humidity;BMP_temperature;BMP_pressure;BME280_temperature;BME280_humidity;BME280_pressure;Samples;Min_cycle;Max_cycle;Signal;HPM_P1;HPM_P2
2022/06/04 00:02:04;;;;;;;3.70;3.50;;;;;;;18.53;85.74;100081.66;10462859;28;20041;-75
2022/06/04 00:07:06;;;;;;;4.13;3.47;;;;;;;18.44;83.47;100090.22;10463542;28;20407;-76
2022/06/04 00:17:31;;;;;;;2.75;2.50;;;;;;;18.57;79.53;100087.63;10463524;28;20102;-76
2022/06/04 00:22:32;;;;;;;2.80;2.60;;;;;;;18.81;78.31;100095.88;10463387;28;20049;-76
2022/06/04 00:27:34;;;;;;;4.97;4.57;;;;;;;18.62;81.72;100091.69;10464228;28;20055;-75
2022/06/04 00:32:37;;;;;;;4.60;3.58;;;;;;;18.42;82.09;100086.81;10463598;28;20048;-75
2022/06/04 00:37:40;;;;;;;4.00;3.70;;;;;;;18.41;84.22;100088.59;10469917;28;20044;-74
2022/06/04 00:42:41;;;;;;;4.20;3.90;;;;;;;18.20;85.64;100083.78;10469385;28;20481;-75
2022/06/04 00:47:43;;;;;;;3.22;3.03;;;;;;;18.20;86.39;100087.31;10467882;28;20072;-74
2022/06/04 00:52:47;;;;;;;4.85;4.45;;;;;;;18.20;88.91;100097.09;10470621;28;20044;-78
2022/06/04 00:58:14;;;;;;;4.53;4.15;;;;;;;17.85;88.98;100098.31;10468251;28;20043;-75
2022/06/04 01:03:54;;;;;;;4.65;4.25;;;;;;;17.75;92.08;100102.47;10460119;28;20459;-73
2022/06/04 01:09:10;;;;;;;4.25;3.95;;;;;;;17.87;92.18;100120.34;10464971;28;20053;-72
2022/06/04 01:14:21;;;;;;;;;;;;;;;17.74;92.79;100115.84;10467112;28;20045;-74
2022/06/04 01:19:37;;;;;;;7.00;6.40;;;;;;;17.52;97.37;100097.63;10500215;28;19975;-75
2022/06/04 01:25:15;;;;;;;5.93;5.40;;;;;;;17.67;93.53;100099.41;10467580;28;20132;-75
2022/06/04 01:30:29;;;;;;;5.93;5.43;;;;;;;17.48;95.37;100109.38;10468716;28;20072;-75
2022/06/04 01:35:47;;;;;;;6.32;5.88;;;;;;;17.14;100.00;100100.75;10466379;28;20053;-75
2022/06/04 01:41:04;;;;;;;5.75;5.35;;;;;;;17.37;95.47;100108.22;10468366;28;20116;-76
2022/06/04 01:46:31;;;;;;;7.65;7.15;;;;;;;17.13;100.00;100112.28;10465546;28;20111;-75
2022/06/04 01:51:35;;;;;;;6.13;5.72;;;;;;;16.92;100.00;100111.75;10465915;28;20442;-73
2022/06/04 01:56:44;;;;;;;8.60;8.00;;;;;;;16.99;100.00;100101.63;10467725;28;20045;-74
2022/06/04 02:01:52;;;;;;;7.75;7.25;;;;;;;16.88;100.00;100099.59;10465236;28;20494;-74
2022/06/04 02:12:20;;;;;;;9.43;8.83;;;;;;;16.92;100.00;100092.31;10465603;28;20136;-75
2022/06/04 02:17:25;;;;;;;7.80;7.30;;;;;;;16.83;100.00;100064.50;10462971;28;20124;-74
2022/06/04 02:22:27;;;;;;;8.27;7.78;;;;;;;17.06;100.00;100073.78;10464954;28;20045;-73
2022/06/04 02:27:29;;;;;;;9.02;8.43;;;;;;;16.93;100.00;100078.09;10463676;28;20049;-73
2022/06/04 02:32:40;;;;;;;9.73;9.13;;;;;;;16.78;100.00;100064.75;10464534;28;20036;-74
2022/06/04 02:37:41;;;;;;;8.27;7.80;;;;;;;16.88;100.00;100057.09;10462368;28;20069;-74
2022/06/04 02:42:50;;;;;;;9.30;8.68;;;;;;;16.93;100.00;100036.44;10460763;28;20048;-74
2022/06/04 02:47:57;;;;;;;8.57;8.02;;;;;;;16.94;100.00;100035.50;10502830;22;20056;-68
2022/06/04 02:53:01;;;;;;;9.15;8.75;;;;;;;16.97;100.00;100045.09;10499707;28;20041;-68
2022/06/04 02:58:10;;;;;;;9.60;9.00;;;;;;;16.92;100.00;100049.81;10500261;28;20051;-68
2022/06/04 03:03:17;;;;;;;11.02;10.23;;;;;;;16.88;100.00;100055.31;10499094;28;20051;-68
2022/06/04 03:08:20;;;;;;;8.98;8.48;;;;;;;16.89;100.00;100058.81;10498831;28;20098;-67
2022/06/04 03:13:22;;;;;;;9.90;9.30;;;;;;;17.13;100.00;100065.38;10498669;28;20079;-67
2022/06/04 03:18:23;;;;;;;13.45;12.75;;;;;;;16.92;100.00;100076.38;10498379;28;20135;-67
2022/06/04 03:23:25;;;;;;;12.93;12.13;;;;;;;16.83;100.00;100073.31;10497053;28;20063;-67
2022/06/04 03:28:27;;;;;;;10.52;9.93;;;;;;;16.86;100.00;100080.22;10498593;28;20036;-68
2022/06/04 03:33:28;;;;;;;10.57;9.88;;;;;;;17.07;100.00;100076.34;10498894;28;20052;-67
2022/06/04 03:38:30;;;;;;;11.45;10.75;;;;;;;16.94;100.00;100066.50;10498194;28;20036;-67
2022/06/04 03:43:32;;;;;;;11.73;11.00;;;;;;;17.32;100.00;100069.59;10498137;28;20044;-67
2022/06/04 03:48:34;;;;;;;12.02;11.43;;;;;;;17.09;100.00;100068.31;10496241;28;20616;-67
2022/06/04 03:53:36;;;;;;;11.63;10.98;;;;;;;17.06;100.00;100052.53;10497543;28;20051;-67
2022/06/04 03:58:38;;;;;;;11.43;10.82;;;;;;;17.28;100.00;100057.44;10498492;28;20090;-67
2022/06/04 04:03:40;;;;;;;11.43;10.82;;;;;;;17.28;100.00;100042.34;10497291;28;20045;-66
2022/06/04 04:08:42;;;;;;;11.93;11.23;;;;;;;17.14;100.00;100040.50;10500279;28;20455;-67
2022/06/04 04:13:44;;;;;;;10.50;9.90;;;;;;;17.07;100.00;100040.97;10504670;28;20044;-67
2022/06/04 04:18:46;;;;;;;9.20;8.68;;;;;;;17.20;100.00;100051.72;10505634;28;20041;-67
2022/06/04 04:23:48;;;;;;;9.05;8.52;;;;;;;17.29;100.00;100053.84;10505416;28;20119;-67
2022/06/04 04:28:50;;;;;;;10.90;10.20;;;;;;;17.35;100.00;100045.50;10505328;28;20036;-67
2022/06/04 04:33:52;;;;;;;10.02;9.20;;;;;;;17.29;100.00;100036.09;10506631;28;20055;-67
2022/06/04 04:38:53;;;;;;;10.80;10.20;;;;;;;17.26;100.00;100044.22;10504840;28;20045;-67
2022/06/04 04:43:55;;;;;;;12.13;11.52;;;;;;;17.09;100.00;100069.16;10504676;28;20099;-67
2022/06/04 04:48:57;;;;;;;13.20;12.45;;;;;;;16.95;100.00;100078.84;10503656;28;20447;-67
2022/06/04 04:53:59;;;;;;;13.85;13.15;;;;;;;16.87;100.00;100080.16;10504162;28;20041;-67
2022/06/04 04:59:00;;;;;;;13.18;12.00;;;;;;;16.90;100.00;100073.78;10505004;28;20478;-67
2022/06/04 05:04:03;;;;;;;13.07;12.32;;;;;;;16.91;100.00;100080.84;10504042;28;20041;-67
2022/06/04 05:09:05;;;;;;;13.48;12.77;;;;;;;16.86;100.00;100070.44;10503664;28;20121;-67
2022/06/04 05:14:07;;;;;;;17.70;16.70;;;;;;;16.62;100.00;100077.13;10503499;28;20045;-67
2022/06/04 05:19:08;;;;;;;19.38;18.27;;;;;;;16.61;100.00;100078.94;10503096;28;20402;-67
2022/06/04 05:24:26;;;;;;;15.88;14.80;;;;;;;16.79;100.00;100095.66;10503154;28;20490;-66
2022/06/04 05:29:29;;;;;;;15.85;14.52;;;;;;;17.00;100.00;100088.28;10503079;28;20044;-67
2022/06/04 05:34:32;;;;;;;17.10;16.08;;;;;;;16.98;100.00;100095.47;10502846;28;20055;-67
2022/06/04 05:39:34;;;;;;;15.38;14.57;;;;;;;16.95;100.00;100098.28;10502490;28;20051;-67
2022/06/04 05:44:35;;;;;;;12.85;11.93;;;;;;;17.31;100.00;100107.72;10502655;28;20048;-67
2022/06/04 05:49:37;;;;;;;11.05;10.55;;;;;;;17.60;100.00;100116.66;10502881;28;20037;-67
2022/06/04 05:54:39;;;;;;;8.90;8.40;;;;;;;17.65;100.00;100127.84;10502123;28;20040;-67
2022/06/04 05:59:41;;;;;;;9.00;8.57;;;;;;;17.93;99.16;100126.22;10502190;28;20047;-67
2022/06/04 06:04:42;;;;;;;9.85;9.07;;;;;;;17.74;100.00;100126.47;10501552;28;20124;-67
2022/06/04 06:09:44;;;;;;;8.93;8.40;;;;;;;18.03;97.29;100125.59;10501561;28;20046;-67
2022/06/04 06:14:46;;;;;;;9.95;9.30;;;;;;;17.80;100.00;100134.13;10501217;28;20066;-68
2022/06/04 06:19:48;;;;;;;10.50;9.90;;;;;;;17.76;100.00;100137.91;10501303;28;20044;-67
2022/06/04 06:24:50;;;;;;;11.70;10.93;;;;;;;17.99;100.00;100148.00;10501065;28;20591;-67
2022/06/04 06:29:52;;;;;;;11.30;10.70;;;;;;;17.80;100.00;100160.69;10500496;28;20044;-68
2022/06/04 06:34:53;;;;;;;12.10;11.23;;;;;;;17.87;100.00;100152.25;10498456;28;20059;-68
2022/06/04 06:39:56;;;;;;;11.50;10.82;;;;;;;18.03;100.00;100146.88;10500235;28;20040;-68
2022/06/04 06:44:57;;;;;;;10.55;9.95;;;;;;;18.04;100.00;100147.72;10499818;28;20048;-67
2022/06/04 06:50:00;;;;;;;9.75;9.15;;;;;;;18.26;100.00;100160.56;10499655;28;20508;-68
2022/06/04 06:55:01;;;;;;;11.10;10.50;;;;;;;17.98;100.00;100156.94;10499492;28;20048;-68
2022/06/04 07:00:04;;;;;;;12.43;11.73;;;;;;;17.99;100.00;100163.97;10499076;28;20478;-68
2022/06/04 07:05:06;;;;;;;11.20;10.40;;;;;;;17.98;100.00;100164.06;10499122;28;20472;-68
2022/06/04 07:10:09;;;;;;;11.75;11.10;;;;;;;18.23;100.00;100168.72;10499239;28;20494;-68
2022/06/04 07:15:11;;;;;;;12.73;11.98;;;;;;;18.31;100.00;100179.75;10499743;28;20040;-68
2022/06/04 07:20:13;;;;;;;12.18;11.38;;;;;;;18.51;100.00;100184.72;10498559;28;20044;-68
2022/06/04 07:25:15;;;;;;;8.40;7.80;;;;;;;18.69;100.00;100188.06;10498173;28;20078;-68
2022/06/04 07:30:16;;;;;;;6.55;6.15;;;;;;;18.83;96.04;100188.03;10498248;28;20083;-68
2022/06/04 07:35:18;;;;;;;7.60;7.15;;;;;;;18.87;97.57;100194.03;10497999;28;20044;-68
2022/06/04 07:40:20;;;;;;;8.23;7.70;;;;;;;18.88;96.62;100196.59;10497722;28;20132;-68
2022/06/04 07:45:21;;;;;;;7.72;7.22;;;;;;;18.99;96.33;100193.25;10496879;28;20131;-68
2022/06/04 07:50:23;;;;;;;8.10;7.50;;;;;;;19.11;96.05;100207.56;10497988;28;20398;-68
2022/06/04 07:55:26;;;;;;;8.10;7.43;;;;;;;19.28;92.16;100215.34;10497332;28;20048;-68
2022/06/04 08:00:29;;;;;;;7.43;7.00;;;;;;;18.92;94.98;100223.03;10497200;28;20101;-68
2022/06/04 08:05:31;;;;;;;8.90;8.40;;;;;;;18.84;96.54;100220.84;10496567;28;20119;-68
2022/06/04 08:10:32;;;;;;;7.60;7.10;;;;;;;18.68;94.88;100223.56;10497379;28;20036;-68
2022/06/04 08:15:34;;;;;;;7.95;7.35;;;;;;;18.78;96.11;100224.75;10497338;28;20128;-69
2022/06/04 08:20:40;;;;;;;7.50;7.00;;;;;;;19.07;94.18;100220.25;10496859;28;20055;-73
2022/06/04 08:25:47;;;;;;;7.10;6.70;;;;;;;19.00;92.77;100218.94;10497872;28;20473;-69
2022/06/04 08:31:01;;;;;;;6.18;5.78;;;;;;;19.41;89.50;100220.72;10496807;28;20448;-68
2022/06/04 08:36:07;;;;;;;6.22;5.93;;;;;;;19.24;88.66;100213.81;10496759;28;20055;-70
2022/06/04 08:41:38;;;;;;;6.70;6.30;;;;;;;19.23;88.66;100224.59;10496572;28;20052;-69
2022/06/04 08:46:50;;;;;;;7.13;6.40;;;;;;;19.54;89.71;100228.78;10491664;22;20060;-74
2022/06/04 08:51:52;;;;;;;5.57;5.18;;;;;;;20.16;85.54;100232.59;10456544;28;20509;-75
2022/06/04 09:02:26;;;;;;;5.85;5.55;;;;;;;20.50;82.52;100237.47;10466901;28;20506;-74
2022/06/04 09:07:40;;;;;;;6.88;6.47;;;;;;;20.12;83.72;100246.25;10466885;28;20049;-73
2022/06/04 09:12:49;;;;;;;5.43;5.13;;;;;;;20.74;80.46;100254.44;10464451;28;20063;-73
2022/06/04 09:17:53;;;;;;;4.55;4.15;;;;;;;20.57;78.93;100258.28;10465837;28;20077;-73
2022/06/04 09:23:02;;;;;;;6.00;5.57;;;;;;;20.66;79.30;100257.63;10468463;28;20047;-74
2022/06/04 09:28:26;;;;;;;5.60;5.30;;;;;;;20.93;76.62;100264.66;10467500;28;20105;-74
2022/06/04 09:33:50;;;;;;;5.38;5.07;;;;;;;21.42;76.36;100274.50;10464407;28;20044;-73
2022/06/04 09:38:59;;;;;;;4.72;4.43;;;;;;;20.97;77.05;100266.16;10467814;28;20052;-74
2022/06/04 09:44:07;;;;;;;4.20;3.90;;;;;;;21.39;77.61;100269.41;10470881;28;20049;-73
2022/06/04 09:49:55;;;;;;;3.63;3.35;;;;;;;21.67;71.36;100268.22;10467788;28;20094;-73
2022/06/04 09:54:59;;;;;;;4.25;3.78;;;;;;;21.82;69.99;100267.06;10303882;28;20057;-73
2022/06/04 10:00:16;;;;;;;3.15;2.95;;;;;;;22.39;67.69;100263.63;10265742;28;20047;-73
2022/06/04 10:05:20;;;;;;;3.30;3.10;;;;;;;23.11;67.28;100263.38;10269745;28;20536;-73
2022/06/04 10:10:28;;;;;;;3.13;2.80;;;;;;;24.10;60.61;100259.66;10302524;28;20062;-73
2022/06/04 10:15:36;;;;;;;2.67;2.45;;;;;;;24.07;60.33;100262.59;10288636;28;20055;-73
2022/06/04 10:20:39;;;;;;;2.65;2.15;;;;;;;24.30;59.01;100266.00;10290202;28;20055;-72
2022/06/04 10:25:52;;;;;;;3.75;2.42;;;;;;;24.40;57.18;100269.66;10416583;28;20053;-73
2022/06/04 10:31:33;;;;;;;2.50;2.30;;;;;;;24.24;58.25;100266.56;10432711;28;20042;-73
2022/06/04 10:36:55;;;;;;;2.47;2.15;;;;;;;24.02;58.00;100262.16;10462419;28;20116;-73
2022/06/04 10:42:10;;;;;;;2.17;1.98;;;;;;;24.05;56.78;100245.78;10474312;28;20037;-74
2022/06/04 10:47:28;;;;;;;2.45;2.25;;;;;;;24.38;57.06;100249.28;10477757;28;20048;-75
2022/06/04 10:52:42;;;;;;;3.10;2.80;;;;;;;23.81;56.44;100275.53;10456894;28;20144;-74
2022/06/04 10:57:43;;;;;;;3.47;2.63;;;;;;;23.40;59.09;100273.53;10433123;28;20051;-73
2022/06/04 11:02:54;;;;;;;3.65;3.35;;;;;;;22.48;60.33;100285.31;10435546;28;20033;-74
2022/06/04 11:08:02;;;;;;;3.75;3.55;;;;;;;22.20;60.23;100284.78;10434813;28;20068;-74
2022/06/04 11:13:30;;;;;;;4.25;3.95;;;;;;;22.00;61.62;100286.28;10433068;28;20051;-74
2022/06/04 11:18:42;;;;;;;4.60;3.92;;;;;;;21.95;62.02;100295.59;10432096;28;20084;-74
2022/06/04 11:23:54;;;;;;;5.25;4.85;;;;;;;21.69;59.41;100285.00;10435701;28;20487;-74
2022/06/04 11:28:56;;;;;;;4.43;4.13;;;;;;;21.92;59.49;100276.13;10411777;28;20057;-73
2022/06/04 11:34:38;;;;;;;5.35;5.10;;;;;;;22.32;58.99;100291.03;10431187;28;20064;-73
2022/06/04 11:40:17;;;;;;;5.07;4.68;;;;;;;22.59;58.08;100290.72;10432122;28;20117;-73
2022/06/04 11:45:32;;;;;;;4.90;4.60;;;;;;;22.38;58.86;100288.72;10429807;28;20101;-74
2022/06/04 11:50:43;;;;;;;6.40;5.82;;;;;;;21.83;59.94;100289.34;10427823;28;20030;-74
2022/06/04 11:56:23;;;;;;;5.78;5.28;;;;;;;22.05;59.82;100296.63;10430402;28;20049;-73
2022/06/04 12:01:41;;;;;;;6.40;6.00;;;;;;;21.65;60.14;100283.53;10430885;28;20049;-74
2022/06/04 12:06:54;;;;;;;6.38;5.78;;;;;;;21.41;59.00;100291.53;10428983;28;20046;-74
2022/06/04 12:12:20;;;;;;;5.65;5.25;;;;;;;21.96;58.71;100294.63;10429329;28;20071;-75
2022/06/04 12:17:59;;;;;;;5.30;4.80;;;;;;;22.40;54.73;100291.25;10432043;28;20042;-75
2022/06/04 12:28:47;;;;;;;5.93;5.53;;;;;;;22.09;54.44;100301.63;10469956;28;20052;-74
2022/06/04 12:33:51;;;;;;;6.70;6.10;;;;;;;22.14;57.15;100302.16;10483603;28;20051;-75
2022/06/04 12:39:02;;;;;;;6.10;5.70;;;;;;;22.15;56.40;100309.22;10467826;28;20095;-75
2022/06/04 12:44:06;;;;;;;6.57;6.03;;;;;;;22.19;55.53;100309.84;10486310;28;20447;-74
2022/06/04 12:49:27;;;;;;;7.22;6.82;;;;;;;22.41;54.56;100309.06;10486991;28;20036;-74
2022/06/04 12:54:47;;;;;;;6.10;5.80;;;;;;;22.24;54.96;100307.66;10483393;28;20429;-74
2022/06/04 13:00:03;;;;;;;5.47;4.97;;;;;;;22.51;55.38;100310.06;10485493;28;20063;-74
2022/06/04 13:05:10;;;;;;;5.65;5.35;;;;;;;22.24;55.35;100293.44;10481636;28;20095;-75
2022/06/04 13:10:22;;;;;;;6.20;5.70;;;;;;;22.07;55.12;100308.91;10481902;28;20131;-74
2022/06/04 13:15:40;;;;;;;7.85;7.35;;;;;;;22.21;54.02;100312.41;10481981;28;20045;-74
2022/06/04 13:20:54;;;;;;;6.38;5.97;;;;;;;21.87;56.71;100310.41;10482276;28;20072;-73
2022/06/04 13:26:17;;;;;;;6.88;6.38;;;;;;;21.81;56.97;100307.31;10483361;28;20053;-74
2022/06/04 13:31:26;;;;;;;6.97;6.47;;;;;;;21.84;56.03;100326.69;10484117;28;20055;-73
2022/06/04 13:36:30;;;;;;;6.97;5.88;;;;;;;21.92;55.15;100312.75;10483550;28;20418;-73
2022/06/04 13:47:12;;;;;;;6.80;6.20;;;;;;;21.81;56.52;100315.34;10479956;28;20052;-75
2022/06/04 13:52:22;;;;;;;5.88;5.40;;;;;;;21.87;55.74;100306.91;10474213;28;20519;-74
2022/06/04 13:57:34;;;;;;;6.20;5.80;;;;;;;21.42;55.66;100314.63;10434686;28;20137;-73
2022/06/04 14:02:39;;;;;;;6.45;6.05;;;;;;;21.86;54.95;100305.16;10435232;28;20045;-74
2022/06/04 14:07:44;;;;;;;7.47;6.77;;;;;;;21.63;55.47;100309.53;10438028;28;20049;-74
2022/06/04 14:13:07;;;;;;;7.80;6.40;;;;;;;21.89;55.65;100303.13;10438921;28;20064;-74
2022/06/04 14:18:14;;;;;;;7.10;6.38;;;;;;;22.05;54.08;100292.13;10439913;28;20442;-73
2022/06/04 14:23:40;;;;;;;6.32;5.93;;;;;;;22.00;55.63;100288.94;10438773;28;20046;-74
2022/06/04 14:28:56;;;;;;;;;;;;;;;22.02;55.74;100303.06;10484354;28;20045;-74
2022/06/04 14:34:00;;;;;;;7.13;6.63;;;;;;;21.83;58.66;100316.97;10479317;28;19921;-73
2022/06/04 14:39:04;;;;;;;7.68;6.97;;;;;;;22.10;57.81;100322.06;10480294;28;20070;-72
2022/06/04 14:44:22;;;;;;;7.85;7.35;;;;;;;21.75;58.54;100331.88;10476973;28;20041;-73
2022/06/04 14:49:46;;;;;;;8.48;7.97;;;;;;;21.49;59.26;100326.59;10440689;22;20053;-69
2022/06/04 14:54:51;;;;;;;7.90;7.50;;;;;;;21.41;60.78;100331.66;10417287;28;20037;-69
2022/06/04 15:00:25;;;;;;;8.70;8.20;;;;;;;21.16;61.45;100324.47;10457329;28;20046;-69
2022/06/04 15:05:47;;;;;;;9.32;8.82;;;;;;;21.25;61.70;100317.63;10458467;28;20164;-69
2022/06/04 15:11:07;;;;;;;8.80;8.30;;;;;;;21.29;61.53;100327.13;10457564;28;20582;-69
2022/06/04 15:16:16;;;;;;;9.60;9.00;;;;;;;21.24;60.78;100323.94;10458172;28;20049;-68
2022/06/04 15:21:23;;;;;;;9.40;8.70;;;;;;;21.42;61.14;100325.31;10457378;28;20041;-69
2022/06/04 15:26:52;;;;;;;10.18;9.57;;;;;;;21.44;61.44;100317.22;10457153;28;20044;-69
2022/06/04 15:37:49;;;;;;;9.65;9.00;;;;;;;21.50;60.47;100303.38;10456884;28;20445;-69
2022/06/04 15:43:07;;;;;;;9.98;9.18;;;;;;;21.22;61.54;100307.19;10456894;28;20490;-69
2022/06/04 15:48:13;;;;;;;8.38;7.85;;;;;;;21.48;61.43;100298.16;10456973;28;20124;-68
2022/06/04 15:58:42;;;;;;;7.85;7.30;;;;;;;21.47;59.45;100328.53;10457420;28;20461;-69
2022/06/04 16:03:58;;;;;;;7.80;7.20;;;;;;;21.60;59.22;100329.38;10454089;28;20110;-70
2022/06/04 16:09:11;;;;;;;7.40;6.82;;;;;;;21.75;58.99;100313.16;10456668;28;20036;-69
2022/06/04 16:14:38;;;;;;;7.88;7.38;;;;;;;22.28;57.90;100310.97;10456572;28;20410;-68
2022/06/04 16:19:52;;;;;;;7.45;6.85;;;;;;;22.24;56.83;100328.25;10454415;28;20037;-68
2022/06/04 16:24:53;;;;;;;8.30;7.78;;;;;;;21.77;58.00;100325.44;10455656;28;20048;-68
2022/06/04 16:30:23;;;;;;;8.95;8.27;;;;;;;21.61;57.99;100319.50;10455567;28;20041;-68
2022/06/04 16:35:25;;;;;;;7.95;7.45;;;;;;;21.37;59.20;100308.75;10455818;28;20036;-68
2022/06/04 16:45:53;;;;;;;9.57;7.90;;;;;;;21.08;60.45;100321.53;10455652;28;20051;-68
2022/06/04 16:51:05;;;;;;;8.82;8.18;;;;;;;21.60;59.04;100323.13;10455803;28;20067;-68
2022/06/04 16:56:08;;;;;;;9.48;8.82;;;;;;;21.22;60.85;100325.88;10456072;28;20053;-69
2022/06/04 17:01:18;;;;;;;8.45;7.85;;;;;;;21.45;60.11;100319.75;10455233;28;20094;-68
2022/06/04 17:06:39;;;;;;;10.48;9.80;;;;;;;21.75;59.06;100311.31;10455284;28;20045;-68
2022/06/04 17:12:04;;;;;;;10.43;9.82;;;;;;;21.45;60.28;100313.56;10454964;28;20040;-68
2022/06/04 17:17:24;;;;;;;10.07;8.90;;;;;;;21.54;59.79;100316.41;10458141;28;20037;-69
2022/06/04 17:22:39;;;;;;;8.05;7.53;;;;;;;21.18;60.74;100327.91;10460700;28;20041;-68
2022/06/04 17:28:10;;;;;;;8.23;7.53;;;;;;;21.42;60.27;100331.53;10462187;28;20395;-69
2022/06/04 17:33:27;;;;;;;7.60;6.90;;;;;;;21.42;59.25;100328.84;10462846;28;20041;-68
2022/06/04 17:38:51;;;;;;;7.72;7.28;;;;;;;21.15;60.16;100344.16;10462069;28;20064;-68
2022/06/04 17:43:53;;;;;;;8.15;7.65;;;;;;;21.27;58.86;100337.09;10459984;28;20044;-68
2022/06/04 17:48:54;;;;;;;7.28;6.70;;;;;;;21.28;59.02;100347.69;10461101;28;20450;-68
2022/06/04 17:53:57;;;;;;;4.88;4.57;;;;;;;21.07;59.70;100342.06;10462453;28;20045;-69
2022/06/04 17:58:59;;;;;;;7.30;6.80;;;;;;;21.14;59.78;100337.13;10461166;28;20045;-69
2022/06/04 18:04:01;;;;;;;5.30;5.00;;;;;;;21.01;59.69;100360.31;10460534;28;20041;-68
2022/06/04 18:09:04;;;;;;;5.90;5.38;;;;;;;21.11;59.35;100364.06;10460147;28;20067;-68
2022/06/04 18:14:06;;;;;;;5.45;5.13;;;;;;;20.79;60.86;100360.97;10459974;28;20071;-69
2022/06/04 18:19:08;;;;;;;4.38;4.05;;;;;;;20.55;61.73;100356.34;10459981;28;20044;-69
2022/06/04 18:24:11;;;;;;;5.78;5.32;;;;;;;20.54;62.73;100367.13;10459464;28;20518;-68
2022/06/04 18:29:15;;;;;;;5.65;5.25;;;;;;;20.36;63.72;100379.88;10458289;28;20052;-68
2022/06/04 18:34:17;;;;;;;6.47;5.97;;;;;;;20.11;66.77;100380.66;10459114;28;20072;-68
2022/06/04 18:39:19;;;;;;;5.55;5.15;;;;;;;19.91;68.09;100376.59;10400868;28;20041;-68
2022/06/04 18:55:01;;;;;;;10.52;9.88;;;;;;;19.79;71.05;100399.63;10393838;28;20042;-68
2022/06/04 19:00:05;;;;;;;8.77;8.02;;;;;;;19.54;71.72;100391.44;10416746;28;20051;-68
2022/06/04 19:05:07;;;;;;;9.23;8.52;;;;;;;19.25;73.99;100401.22;10415313;28;20053;-68
2022/06/04 19:15:47;;;;;;;8.60;7.97;;;;;;;18.91;75.60;100405.97;10384031;28;20041;-68
2022/06/04 19:26:09;;;;;;;9.77;9.18;;;;;;;19.07;73.96;100422.72;10415973;28;20045;-68
2022/06/04 19:31:11;;;;;;;10.55;9.82;;;;;;;18.86;74.97;100427.56;10415754;28;20046;-68
2022/06/04 19:36:13;;;;;;;11.95;11.18;;;;;;;18.52;77.62;100438.47;10415689;28;20495;-68
2022/06/04 19:41:15;;;;;;;12.15;11.45;;;;;;;18.34;78.78;100437.72;10415487;28;20050;-68
2022/06/04 19:46:17;;;;;;;11.35;10.57;;;;;;;18.48;77.12;100437.78;10415575;28;20071;-68
2022/06/04 19:51:19;;;;;;;12.45;11.65;;;;;;;18.35;77.81;100442.94;10414844;28;20068;-68
2022/06/04 19:56:21;;;;;;;13.15;12.45;;;;;;;18.38;77.83;100436.59;10415340;28;20569;-68
2022/06/04 20:01:24;;;;;;;15.63;14.63;;;;;;;18.24;78.32;100431.19;10415084;28;20041;-68
2022/06/04 20:06:28;;;;;;;15.23;14.23;;;;;;;18.03;79.94;100444.78;10414802;28;20052;-68
2022/06/04 20:11:31;;;;;;;13.82;12.98;;;;;;;17.89;81.29;100450.03;10414594;28;20099;-68
2022/06/04 20:16:33;;;;;;;13.35;12.55;;;;;;;17.81;82.00;100460.22;10414671;28;20561;-68
2022/06/04 20:21:35;;;;;;;11.55;10.85;;;;;;;17.59;82.71;100463.16;10414939;28;20045;-68
2022/06/04 20:26:37;;;;;;;10.90;10.30;;;;;;;17.62;81.68;100469.16;10413881;28;20045;-68
2022/06/04 20:31:39;;;;;;;11.50;10.70;;;;;;;17.47;82.82;100467.31;10414298;28;20056;-68
2022/06/04 20:36:41;;;;;;;11.90;11.13;;;;;;;17.21;84.75;100454.56;10414514;28;20045;-68
2022/06/04 20:41:43;;;;;;;11.27;10.65;;;;;;;17.12;85.30;100453.22;10413924;28;20076;-68
2022/06/04 20:46:45;;;;;;;13.50;12.70;;;;;;;17.04;86.17;100453.63;10414145;28;20495;-68
2022/06/04 20:51:47;;;;;;;15.57;14.52;;;;;;;17.02;86.46;100444.91;10417241;28;20171;-68
2022/06/04 20:56:49;;;;;;;14.13;13.32;;;;;;;16.95;87.45;100459.41;10422280;28;20045;-68
2022/06/04 21:01:51;;;;;;;18.75;17.75;;;;;;;17.14;86.45;100462.00;10421112;28;20041;-68
2022/06/04 21:06:53;;;;;;;22.45;21.15;;;;;;;17.35;84.61;100465.31;10421867;28;20045;-68
2022/06/04 21:11:55;;;;;;;18.52;17.42;;;;;;;17.24;84.17;100465.03;10449606;22;20040;-72
2022/06/04 21:16:57;;;;;;;18.88;17.88;;;;;;;17.04;84.36;100468.69;10507582;28;20051;-73
2022/06/04 21:21:59;;;;;;;18.20;17.05;;;;;;;16.63;87.12;100464.53;10509575;28;20123;-72
2022/06/04 21:27:00;;;;;;;16.27;15.38;;;;;;;16.45;88.30;100460.13;10488628;28;20045;-71
2022/06/04 21:32:03;;;;;;;19.38;18.17;;;;;;;16.67;87.83;100461.72;10505233;28;20055;-71
2022/06/04 21:42:25;;;;;;;17.55;16.65;;;;;;;16.50;88.58;100465.22;10506077;28;20040;-71
2022/06/04 21:47:27;;;;;;;19.35;18.25;;;;;;;16.35;89.60;100464.19;10504933;28;20041;-71
2022/06/04 21:52:28;;;;;;;18.25;17.20;;;;;;;16.39;89.38;100477.22;10504719;28;20056;-71
2022/06/04 21:57:30;;;;;;;19.88;18.58;;;;;;;16.17;90.89;100471.25;10504497;28;20045;-71
2022/06/04 22:02:32;;;;;;;19.67;18.10;;;;;;;16.01;91.78;100472.88;10504130;28;20059;-71
2022/06/04 22:07:33;;;;;;;20.08;18.90;;;;;;;16.18;91.03;100478.25;10504690;28;20075;-71
2022/06/04 22:12:35;;;;;;;21.25;20.15;;;;;;;16.08;91.77;100482.28;10504265;28;20127;-71
2022/06/04 22:17:37;;;;;;;19.25;18.25;;;;;;;15.99;92.27;100472.97;10503094;28;20067;-71
2022/06/04 22:22:39;;;;;;;16.98;16.08;;;;;;;15.87;92.51;100469.09;10503863;28;20486;-71
2022/06/04 22:27:41;;;;;;;18.95;17.95;;;;;;;15.74;93.46;100467.09;10505244;28;20051;-71
2022/06/04 22:32:43;;;;;;;18.40;17.50;;;;;;;15.66;93.53;100469.22;10501942;28;20054;-71
2022/06/04 22:37:45;;;;;;;19.23;18.02;;;;;;;15.61;94.83;100466.75;10501529;28;20056;-71
2022/06/04 22:42:47;;;;;;;20.23;19.02;;;;;;;15.74;93.80;100469.75;10500835;28;20052;-72
2022/06/04 22:47:48;;;;;;;19.50;18.38;;;;;;;15.80;93.09;100469.44;10502897;28;20516;-72
2022/06/04 22:52:50;;;;;;;20.60;19.40;;;;;;;15.91;91.60;100467.16;10502346;28;20041;-72
2022/06/04 22:57:52;;;;;;;20.27;19.15;;;;;;;15.72;92.17;100480.44;10502347;28;20045;-72
2022/06/04 23:02:54;;;;;;;20.60;19.48;;;;;;;15.40;94.53;100473.88;10501970;28;20119;-72
2022/06/04 23:07:56;;;;;;;21.88;20.55;;;;;;;15.29;94.93;100470.88;10502883;28;20044;-72
2022/06/04 23:23:38;;;;;;;31.55;28.98;;;;;;;15.07;95.01;100455.91;10502219;28;20040;-72
2022/06/04 23:28:43;;;;;;;58.97;48.88;;;;;;;15.11;94.48;100457.50;10500264;28;20140;-71
2022/06/04 23:33:46;;;;;;;93.78;66.93;;;;;;;15.05;95.15;100464.84;10503369;28;20075;-71
2022/06/04 23:38:47;;;;;;;80.68;59.28;;;;;;;15.42;91.90;100458.78;10500440;28;20494;-72
2022/06/04 23:43:49;;;;;;;45.92;41.00;;;;;;;14.98;94.67;100461.59;10483857;28;20044;-72
2022/06/04 23:48:51;;;;;;;42.50;38.40;;;;;;;14.73;96.35;100453.84;10501579;28;20494;-72
2022/06/04 23:53:53;;;;;;;40.35;36.40;;;;;;;14.58;97.75;100451.84;10502633;28;20071;-72
2022/06/04 23:58:54;;;;;;;32.92;30.67;;;;;;;14.66;97.67;100452.41;10501222;28;20048;-71
